createdAt,value
2023-04-01T00:01:58.948Z,11.97
2023-04-01T00:04:26.434Z,14.40
2023-04-01T00:06:54.150Z,10.20
2023-04-01T00:09:21.471Z,12.43
2023-04-01T00:11:48.830Z,13.33
2023-04-01T00:14:16.143Z,10.80
2023-04-01T00:16:43.547Z,11.40
2023-04-01T00:19:11.067Z,9.63
2023-04-01T00:21:38.457Z,16.70
2023-04-01T00:24:05.827Z,12.20
2023-04-01T00:26:33.212Z,11.17
2023-04-01T00:29:01.455Z,11.20
2023-04-01T00:31:28.879Z,11.10
2023-04-01T00:33:56.992Z,12.73
2023-04-01T00:36:24.489Z,12.70
2023-04-01T00:38:52.996Z,10.40
2023-04-01T00:41:21.839Z,13.63
2023-04-01T00:43:50.365Z,11.20
2023-04-01T00:46:17.856Z,10.67
2023-04-01T00:48:55.495Z,10.23
2023-04-01T00:51:24.420Z,7.90
2023-04-01T00:53:53.337Z,11.03
2023-04-01T00:56:23.506Z,10.67
2023-04-01T00:58:55.398Z,10.57
2023-04-01T01:01:24.229Z,12.17
2023-04-01T01:03:51.605Z,10.83
2023-04-01T01:06:22.181Z,10.23
2023-04-01T01:09:00.290Z,10.40
2023-04-01T01:13:59.562Z,12.13
2023-04-01T01:16:29.031Z,13.33
2023-04-01T01:19:14.595Z,14.10
2023-04-01T01:21:43.599Z,10.60
2023-04-01T01:24:24.208Z,9.83
2023-04-01T01:27:05.214Z,9.50
2023-04-01T01:29:34.132Z,8.77
2023-04-01T01:32:14.753Z,11.17
2023-04-01T01:34:46.331Z,10.00
2023-04-01T01:37:15.308Z,13.23
2023-04-01T01:39:44.357Z,12.20
2023-04-01T01:42:13.298Z,12.63
2023-04-01T01:44:42.092Z,10.63
2023-04-01T01:47:09.547Z,12.83
2023-04-01T01:49:37.791Z,10.63
2023-04-01T01:52:05.183Z,10.53
2023-04-01T01:54:32.562Z,8.57
2023-04-01T01:57:10.162Z,15.10
2023-04-01T01:59:39.060Z,8.30
2023-04-01T02:02:08.935Z,10.17
2023-04-01T02:04:37.806Z,8.43
2023-04-01T02:07:06.616Z,10.90
2023-04-01T02:09:35.212Z,11.13
2023-04-01T02:12:06.954Z,8.83
2023-04-01T02:14:39.273Z,11.47
2023-04-01T02:17:11.304Z,9.60
2023-04-01T02:19:40.418Z,10.10
2023-04-01T02:22:09.322Z,10.57
2023-04-01T02:24:37.516Z,11.60
2023-04-01T02:27:05.158Z,11.67
2023-04-01T02:29:32.814Z,9.70
2023-04-01T02:32:00.454Z,12.03
2023-04-01T02:34:27.908Z,12.63
2023-04-01T02:36:56.767Z,14.20
2023-04-01T02:39:24.082Z,10.13
2023-04-01T02:41:51.465Z,12.00
2023-04-01T02:44:18.859Z,9.07
2023-04-01T02:46:46.298Z,10.33
2023-04-01T02:49:13.740Z,10.97
2023-04-01T02:51:41.109Z,9.17
2023-04-01T02:54:08.496Z,12.30
2023-04-01T02:56:36.342Z,10.50
2023-04-01T02:59:03.897Z,9.70
2023-04-01T03:01:31.330Z,13.17
2023-04-01T03:03:58.880Z,11.70
2023-04-01T03:06:26.226Z,10.17
2023-04-01T03:08:53.627Z,9.97
2023-04-01T03:11:21.959Z,13.30
2023-04-01T03:13:49.676Z,9.47
2023-04-01T03:16:18.067Z,11.73
2023-04-01T03:18:45.656Z,8.60
2023-04-01T03:21:16.882Z,9.17
2023-04-01T03:23:44.255Z,10.70
2023-04-01T03:26:11.565Z,10.47
2023-04-01T03:28:38.926Z,8.90
2023-04-01T03:31:06.474Z,9.40
2023-04-01T03:33:34.185Z,8.03
2023-04-01T03:36:01.601Z,8.83
2023-04-01T03:38:28.930Z,9.37
2023-04-01T03:40:56.228Z,9.60
2023-04-01T03:43:23.668Z,8.90
2023-04-01T03:45:52.041Z,10.03
2023-04-01T03:48:19.533Z,10.63
2023-04-01T03:50:46.920Z,8.67
2023-04-01T03:53:14.266Z,14.27
2023-04-01T03:55:41.709Z,8.40
2023-04-01T03:58:09.544Z,8.70
2023-04-01T04:00:37.104Z,8.87
2023-04-01T04:03:04.627Z,10.07
2023-04-01T04:05:32.306Z,15.43
2023-04-01T04:08:00.017Z,12.57
2023-04-01T04:10:27.402Z,8.83
2023-04-01T04:12:54.768Z,11.00
2023-04-01T04:15:22.147Z,8.73
2023-04-01T04:17:49.562Z,10.50
2023-04-01T04:20:16.911Z,9.30
2023-04-01T04:22:44.254Z,8.10
2023-04-01T04:25:11.564Z,9.50
2023-04-01T04:27:38.969Z,10.60
2023-04-01T04:30:07.140Z,8.30
2023-04-01T04:32:34.554Z,10.10
2023-04-01T04:35:01.905Z,8.10
2023-04-01T04:37:29.274Z,10.77
2023-04-01T04:39:56.605Z,8.40
2023-04-01T04:42:23.966Z,9.30
2023-04-01T04:44:51.349Z,9.87
2023-04-01T04:47:18.787Z,7.93
2023-04-01T04:49:46.097Z,9.30
2023-04-01T04:52:13.463Z,8.73
2023-04-01T04:54:40.840Z,9.50
2023-04-01T04:57:08.250Z,9.03
2023-04-01T04:59:35.608Z,8.23
2023-04-01T05:02:03.053Z,9.47
2023-04-01T05:04:30.475Z,8.40
2023-04-01T05:06:57.842Z,9.63
2023-04-01T05:09:25.240Z,8.57
2023-04-01T05:11:52.627Z,8.70
2023-04-01T05:14:20.160Z,9.10
2023-04-01T05:16:47.606Z,8.23
2023-04-01T05:19:15.112Z,11.43
2023-04-01T05:21:42.473Z,7.73
2023-04-01T05:24:10.714Z,8.80
2023-04-01T05:26:38.321Z,10.10
2023-04-01T05:29:06.428Z,8.13
2023-04-01T05:31:33.808Z,10.17
2023-04-01T05:34:01.222Z,10.07
2023-04-01T05:36:28.601Z,7.17
2023-04-01T05:38:58.755Z,9.37
2023-04-01T05:41:26.136Z,10.00
2023-04-01T05:43:53.520Z,8.23
2023-04-01T05:46:21.250Z,9.87
2023-04-01T05:48:48.680Z,8.70
2023-04-01T05:51:16.565Z,6.90
2023-04-01T05:53:44.400Z,8.07
2023-04-01T05:56:11.833Z,7.90
2023-04-01T05:58:39.482Z,9.60
2023-04-01T06:01:11.637Z,10.70
2023-04-01T06:03:37.939Z,8.27
2023-04-01T06:06:05.664Z,10.20
2023-04-01T06:08:33.215Z,7.90
2023-04-01T06:11:11.038Z,13.27
2023-04-01T06:13:39.966Z,9.40
2023-04-01T06:16:25.392Z,10.40
2023-04-01T06:19:00.465Z,12.50
2023-04-01T06:21:45.764Z,8.10
2023-04-01T06:24:14.697Z,8.10
2023-04-01T06:26:52.810Z,8.67
2023-04-01T06:29:30.954Z,10.30
2023-04-01T06:32:06.024Z,8.70
2023-04-01T06:34:37.565Z,8.30
2023-04-01T06:37:12.608Z,8.60
2023-04-01T06:39:57.922Z,8.30
2023-04-01T06:42:41.828Z,7.10
2023-04-01T06:45:10.738Z,8.83
2023-04-01T06:47:39.705Z,7.23
2023-04-01T06:50:25.040Z,7.57
2023-04-01T06:52:56.698Z,7.70
2023-04-01T06:55:38.783Z,7.60
2023-04-01T06:58:07.768Z,10.30
2023-04-01T07:00:36.776Z,9.47
2023-04-01T07:03:08.472Z,10.87
2023-04-01T07:05:36.853Z,7.83
2023-04-01T07:08:06.022Z,8.23
2023-04-01T07:10:50.153Z,6.90
2023-04-01T07:13:22.979Z,7.93
2023-04-01T07:16:06.869Z,7.00
2023-04-01T07:18:35.784Z,6.97
2023-04-01T07:21:05.418Z,7.30
2023-04-01T07:23:37.038Z,6.90
2023-04-01T07:26:06.293Z,6.50
2023-04-01T07:28:36.093Z,6.90
2023-04-01T07:31:13.957Z,6.77
2023-04-01T07:33:42.829Z,6.60
2023-04-01T07:36:11.810Z,6.60
2023-04-01T07:38:58.840Z,7.63
2023-04-01T07:41:27.728Z,10.73
2023-04-01T07:44:05.614Z,6.90
2023-04-01T07:46:46.420Z,7.00
2023-04-01T07:49:15.324Z,7.00
2023-04-01T07:51:44.258Z,6.37
2023-04-01T07:54:13.154Z,6.40
2023-04-01T07:56:42.085Z,6.40
2023-04-01T07:59:20.230Z,6.50
2023-04-01T08:01:52.107Z,8.13
2023-04-01T08:04:21.173Z,6.87
2023-04-01T08:06:56.074Z,6.50
2023-04-01T08:09:25.268Z,7.57
2023-04-01T08:11:58.946Z,7.00
2023-04-01T08:14:36.918Z,6.97
2023-04-01T08:17:21.887Z,7.10
2023-04-01T08:19:52.446Z,6.60
2023-04-01T08:22:31.114Z,6.33
2023-04-01T08:25:01.687Z,6.47
2023-04-01T08:27:42.654Z,6.70
2023-04-01T08:30:20.757Z,6.60
2023-04-01T08:32:49.758Z,8.40
2023-04-01T08:35:21.594Z,6.57
2023-04-01T08:37:50.034Z,6.70
2023-04-01T08:40:35.994Z,6.87
2023-04-01T08:43:21.345Z,6.50
2023-04-01T08:46:05.620Z,7.33
2023-04-01T08:48:34.592Z,7.67
2023-04-01T08:51:05.226Z,7.83
2023-04-01T08:53:36.791Z,9.67
2023-04-01T08:56:06.215Z,6.60
2023-04-01T08:58:51.358Z,6.60
2023-04-01T09:01:22.902Z,7.13
2023-04-01T09:03:51.923Z,7.53
2023-04-01T09:06:38.798Z,6.53
2023-04-01T09:09:23.998Z,6.80
2023-04-01T09:12:09.727Z,6.63
2023-04-01T09:14:41.716Z,6.60
2023-04-01T09:17:27.156Z,6.40
2023-04-01T09:19:58.976Z,6.90
2023-04-01T09:22:36.875Z,7.43
2023-04-01T09:25:08.765Z,7.47
2023-04-01T09:27:55.550Z,6.70
2023-04-01T09:30:36.467Z,6.50
2023-04-01T09:33:11.080Z,6.43
2023-04-01T09:35:40.874Z,6.60
2023-04-01T09:38:15.919Z,6.60
2023-04-01T09:40:59.832Z,7.87
2023-04-01T09:43:28.350Z,6.50
2023-04-01T09:46:00.335Z,6.53
2023-04-01T09:48:29.278Z,6.40
2023-04-01T09:51:04.113Z,7.10
2023-04-01T09:53:38.958Z,6.90
2023-04-01T09:56:10.937Z,6.37
2023-04-01T09:58:45.775Z,6.80
2023-04-01T10:01:30.081Z,7.37
2023-04-01T10:04:01.676Z,6.43
2023-04-01T10:06:47.239Z,7.77
2023-04-01T10:09:34.376Z,6.60
2023-04-01T10:12:06.007Z,7.00
2023-04-01T10:14:43.996Z,8.10
2023-04-01T10:17:18.902Z,6.73
2023-04-01T10:19:47.829Z,7.33
2023-04-01T10:22:25.728Z,6.30
2023-04-01T10:24:54.637Z,6.50
2023-04-01T10:27:23.584Z,6.90
2023-04-01T10:30:01.482Z,6.50
2023-04-01T10:32:36.256Z,6.40
2023-04-01T10:35:21.778Z,6.87
2023-04-01T10:37:56.453Z,7.37
2023-04-01T10:40:26.296Z,7.23
2023-04-01T10:43:11.701Z,6.73
2023-04-01T10:45:56.934Z,6.70
2023-04-01T10:48:38.181Z,6.90
2023-04-01T10:51:23.526Z,6.67
2023-04-01T10:54:10.956Z,7.37
2023-04-01T10:56:42.800Z,6.80
2023-04-01T10:59:23.571Z,6.90
2023-04-01T11:02:12.067Z,6.70
2023-04-01T11:04:56.666Z,7.80
2023-04-01T11:07:25.632Z,6.80
2023-04-01T11:10:00.209Z,6.63
2023-04-01T11:12:45.948Z,6.90
2023-04-01T11:15:15.140Z,7.73
2023-04-01T11:17:46.830Z,6.87
2023-04-01T11:20:21.781Z,7.10
2023-04-01T11:23:07.266Z,7.00
2023-04-01T11:25:45.362Z,6.93
2023-04-01T11:28:17.192Z,6.80
2023-04-01T11:30:56.383Z,6.97
2023-04-01T11:33:25.269Z,7.10
2023-04-01T11:35:56.883Z,6.50
2023-04-01T11:38:26.071Z,6.73
2023-04-01T11:40:54.975Z,7.87
2023-04-01T11:43:35.989Z,6.80
2023-04-01T11:46:16.685Z,7.37
2023-04-01T11:48:54.611Z,7.23
2023-04-01T11:51:23.508Z,6.90
2023-04-01T11:54:08.827Z,8.37
2023-04-01T11:56:40.418Z,6.67
2023-04-01T11:59:15.268Z,6.73
2023-04-01T12:01:50.192Z,6.90
2023-04-01T12:04:35.861Z,6.60
2023-04-01T12:07:23.117Z,6.87
2023-04-01T12:10:08.296Z,6.60
2023-04-01T12:12:37.227Z,6.60
2023-04-01T12:15:06.157Z,6.83
2023-04-01T12:17:51.599Z,6.60
2023-04-01T12:20:36.101Z,6.60
2023-04-01T12:23:07.921Z,7.00
2023-04-01T12:25:53.248Z,6.73
2023-04-01T12:28:27.916Z,6.60
2023-04-01T12:30:56.903Z,9.13
2023-04-01T12:33:41.081Z,6.90
2023-04-01T12:36:11.416Z,6.70
2023-04-01T12:38:46.578Z,7.33
2023-04-01T12:41:27.638Z,7.00
2023-04-01T12:44:14.589Z,6.70
2023-04-01T12:46:55.599Z,6.40
2023-04-01T12:49:36.447Z,6.80
2023-04-01T12:52:14.476Z,8.57
2023-04-01T12:54:55.598Z,6.50
2023-04-01T12:57:42.477Z,7.07
2023-04-01T13:00:11.428Z,6.80
2023-04-01T13:02:44.627Z,6.80
2023-04-01T13:05:13.609Z,6.77
2023-04-01T13:07:45.451Z,8.33
2023-04-01T13:10:29.995Z,6.70
2023-04-01T13:13:14.155Z,6.97
2023-04-01T13:15:48.924Z,6.70
2023-04-01T13:18:23.718Z,6.77
2023-04-01T13:21:09.401Z,6.73
2023-04-01T13:23:56.553Z,6.80
2023-04-01T13:26:28.266Z,7.43
2023-04-01T13:28:57.273Z,6.60
2023-04-01T13:31:26.450Z,6.67
2023-04-01T13:34:01.340Z,6.60
2023-04-01T13:36:45.282Z,6.70
2023-04-01T13:39:26.092Z,6.80
2023-04-01T13:42:12.339Z,8.43
2023-04-01T13:44:43.907Z,6.53
2023-04-01T13:47:15.741Z,6.70
2023-04-01T13:49:46.515Z,6.80
2023-04-01T13:52:27.589Z,6.90
2023-04-01T13:55:14.140Z,7.30
2023-04-01T13:57:45.996Z,6.70
2023-04-01T14:00:26.799Z,6.80
2023-04-01T14:03:13.866Z,7.17
2023-04-01T14:05:59.235Z,7.20
2023-04-01T14:08:36.875Z,6.80
2023-04-01T14:11:05.876Z,6.80
2023-04-01T14:13:36.304Z,6.70
2023-04-01T14:16:05.829Z,8.07
2023-04-01T14:18:43.977Z,7.27
2023-04-01T14:21:29.478Z,6.53
2023-04-01T14:23:58.455Z,6.73
2023-04-01T14:26:30.314Z,6.90
2023-04-01T14:29:05.443Z,7.10
2023-04-01T14:31:43.212Z,7.10
2023-04-01T14:34:12.150Z,6.63
2023-04-01T14:36:57.812Z,8.83
2023-04-01T14:39:32.600Z,8.70
2023-04-01T14:42:22.034Z,8.60
2023-04-01T14:44:55.434Z,6.70
2023-04-01T14:47:41.061Z,6.60
2023-04-01T14:50:10.238Z,6.90
2023-04-01T14:52:39.224Z,6.90
2023-04-01T14:55:08.146Z,8.07
2023-04-01T14:57:35.705Z,6.63
2023-04-01T15:00:07.268Z,6.60
2023-04-01T15:02:39.048Z,7.07
2023-04-01T15:05:08.065Z,6.97
2023-04-01T15:07:46.072Z,8.43
2023-04-01T15:10:29.933Z,7.00
2023-04-01T15:12:58.843Z,6.90
2023-04-01T15:15:27.932Z,9.70
2023-04-01T15:18:12.097Z,7.40
2023-04-01T15:20:44.860Z,6.90
2023-04-01T15:23:13.755Z,6.60
2023-04-01T15:25:42.684Z,6.90
2023-04-01T15:28:27.949Z,7.20
2023-04-01T15:31:06.146Z,7.10
2023-04-01T15:33:35.065Z,6.80
2023-04-01T15:36:03.932Z,6.67
2023-04-01T15:38:41.782Z,6.83
2023-04-01T15:41:17.498Z,7.83
2023-04-01T15:43:55.408Z,7.10
2023-04-01T15:46:30.361Z,6.53
2023-04-01T15:49:08.402Z,7.10
2023-04-01T15:51:49.284Z,7.00
2023-04-01T15:54:26.988Z,7.03
2023-04-01T15:56:58.886Z,7.10
2023-04-01T15:59:27.779Z,6.90
2023-04-01T16:02:05.907Z,6.73
2023-04-01T16:04:51.657Z,6.70
2023-04-01T16:07:29.616Z,6.70
2023-04-01T16:09:58.531Z,6.90
2023-04-01T16:12:43.965Z,7.57
2023-04-01T16:15:24.834Z,8.73
2023-04-01T16:18:02.830Z,7.90
2023-04-01T16:20:48.563Z,6.57
2023-04-01T16:23:23.465Z,7.40
2023-04-01T16:25:55.308Z,7.10
2023-04-01T16:28:36.218Z,6.63
2023-04-01T16:31:20.080Z,7.87
2023-04-01T16:33:49.210Z,6.73
2023-04-01T16:36:34.777Z,7.00
2023-04-01T16:39:09.403Z,6.67
2023-04-01T16:41:38.765Z,6.77
2023-04-01T16:44:16.925Z,7.00
2023-04-01T16:46:57.773Z,7.00
2023-04-01T16:49:29.345Z,6.80
2023-04-01T16:52:07.866Z,8.80
2023-04-01T16:54:48.687Z,6.80
2023-04-01T16:57:17.697Z,6.90
2023-04-01T16:59:49.352Z,6.70
2023-04-01T17:02:18.422Z,7.77
2023-04-01T17:04:47.357Z,6.67
2023-04-01T17:07:28.932Z,7.20
2023-04-01T17:10:01.021Z,6.87
2023-04-01T17:12:30.004Z,7.20
2023-04-01T17:15:14.228Z,7.63
2023-04-01T17:17:48.974Z,6.90
2023-04-01T17:20:23.742Z,7.40
2023-04-01T17:22:55.382Z,8.73
2023-04-01T17:25:24.312Z,7.83
2023-04-01T17:27:53.689Z,6.80
2023-04-01T17:30:23.297Z,7.23
2023-04-01T17:32:52.252Z,7.00
2023-04-01T17:35:22.597Z,7.17
2023-04-01T17:38:08.107Z,6.73
2023-04-01T17:40:40.168Z,7.10
2023-04-01T17:43:21.187Z,7.20
2023-04-01T17:45:50.110Z,7.50
2023-04-01T17:48:28.010Z,7.00
2023-04-01T17:50:56.861Z,6.90
2023-04-01T17:53:32.158Z,7.43
2023-04-01T17:56:17.975Z,6.90
2023-04-01T17:58:50.095Z,7.37
2023-04-01T18:01:19.052Z,6.83
2023-04-01T18:03:50.731Z,6.90
2023-04-01T18:06:25.674Z,9.53
2023-04-01T18:08:54.594Z,7.10
2023-04-01T18:11:34.049Z,7.17
2023-04-01T18:14:05.656Z,9.40
2023-04-01T18:16:36.017Z,8.43
2023-04-01T18:19:04.982Z,7.10
2023-04-01T18:21:43.026Z,9.37
2023-04-01T18:24:14.880Z,7.77
2023-04-01T18:26:43.809Z,7.50
2023-04-01T18:29:28.486Z,9.00
2023-04-01T18:32:14.283Z,7.50
2023-04-01T18:34:43.380Z,8.63
2023-04-01T18:37:18.399Z,7.10
2023-04-01T18:39:53.288Z,8.27
2023-04-01T18:42:38.829Z,7.77
2023-04-01T18:45:26.085Z,7.00
2023-04-01T18:48:10.422Z,14.27
2023-04-01T18:50:42.040Z,8.57
2023-04-01T18:53:30.889Z,6.97
2023-04-01T18:55:59.831Z,7.10
2023-04-01T18:58:28.754Z,7.30
2023-04-01T19:01:09.852Z,7.80
2023-04-01T19:03:38.915Z,6.90
2023-04-01T19:06:07.849Z,8.17
2023-04-01T19:08:37.161Z,7.30
2023-04-01T19:11:10.238Z,7.10
2023-04-01T19:13:39.510Z,7.50
2023-04-01T19:16:14.422Z,7.20
2023-04-01T19:18:46.004Z,7.30
2023-04-01T19:21:14.864Z,8.23
2023-04-01T19:24:02.072Z,7.10
2023-04-01T19:26:43.114Z,7.60
2023-04-01T19:29:28.694Z,8.57
2023-04-01T19:32:00.561Z,7.33
2023-04-01T19:34:35.529Z,7.40
2023-04-01T19:37:19.700Z,8.60
2023-04-01T19:39:48.619Z,7.43
2023-04-01T19:42:20.272Z,10.50
2023-04-01T19:45:03.987Z,8.57
2023-04-01T19:47:35.593Z,8.30
2023-04-01T19:50:04.509Z,7.97
2023-04-01T19:52:36.320Z,7.13
2023-04-01T19:55:15.883Z,8.70
2023-04-01T19:57:50.766Z,7.63
2023-04-01T20:00:28.627Z,11.20
2023-04-01T20:03:12.984Z,8.40
2023-04-01T20:05:57.126Z,7.47
2023-04-01T20:08:26.333Z,7.80
2023-04-01T20:10:56.877Z,9.23
2023-04-01T20:13:28.707Z,8.43
2023-04-01T20:16:03.512Z,7.83
2023-04-01T20:18:33.584Z,8.33
2023-04-01T20:21:05.418Z,7.80
2023-04-01T20:23:34.345Z,8.77
2023-04-01T20:26:06.191Z,8.20
2023-04-01T20:28:41.018Z,8.07
2023-04-01T20:31:16.068Z,7.60
2023-04-01T20:33:58.423Z,8.50
2023-04-01T20:36:30.403Z,7.70
2023-04-01T20:39:12.156Z,9.40
2023-04-01T20:41:41.075Z,8.07
2023-04-01T20:44:12.955Z,7.73
2023-04-01T20:46:54.047Z,7.70
2023-04-01T20:49:28.983Z,7.63
2023-04-01T20:51:57.896Z,8.50
2023-04-01T20:54:43.365Z,9.10
2023-04-01T20:57:24.746Z,9.60
2023-04-01T20:59:53.753Z,10.70
2023-04-01T21:02:22.750Z,8.70
2023-04-01T21:04:51.893Z,9.63
2023-04-01T21:07:37.150Z,8.27
2023-04-01T21:10:23.264Z,7.70
2023-04-01T21:12:52.187Z,8.07
2023-04-01T21:15:36.267Z,8.20
2023-04-01T21:18:14.274Z,8.10
2023-04-01T21:20:48.090Z,7.70
2023-04-01T21:23:26.726Z,8.77
2023-04-01T21:26:01.616Z,7.50
2023-04-01T21:28:30.549Z,8.73
2023-04-01T21:31:02.156Z,7.50
2023-04-01T21:33:31.144Z,7.80
2023-04-01T21:36:16.375Z,7.70
2023-04-01T21:39:01.859Z,8.40
2023-04-01T21:41:39.585Z,8.30
2023-04-01T21:44:16.052Z,8.30
2023-04-01T21:46:47.893Z,7.30
2023-04-01T21:49:16.919Z,7.70
2023-04-01T21:52:02.376Z,7.63
2023-04-01T21:54:43.972Z,8.00
2023-04-01T21:57:18.832Z,7.57
2023-04-01T21:59:56.828Z,7.67
2023-04-01T22:02:40.729Z,9.60
2023-04-01T22:05:13.048Z,7.80
2023-04-01T22:07:48.515Z,8.80
2023-04-01T22:10:20.120Z,8.53
2023-04-01T22:12:58.198Z,7.70
2023-04-01T22:15:31.569Z,7.70
2023-04-01T22:18:02.166Z,7.90
2023-04-01T22:20:31.338Z,8.20
2023-04-01T22:23:15.786Z,8.07
2023-04-01T22:25:54.397Z,7.90
2023-04-01T22:28:32.605Z,7.80
2023-04-01T22:31:04.697Z,8.67
2023-04-01T22:33:33.884Z,8.77
2023-04-01T22:36:19.162Z,7.63
2023-04-01T22:38:57.070Z,8.17
2023-04-01T22:41:28.789Z,9.30
2023-04-01T22:43:59.298Z,8.37
2023-04-01T22:46:44.875Z,8.67
2023-04-01T22:49:21.632Z,7.87
2023-04-01T22:51:50.805Z,7.40
2023-04-01T22:54:38.055Z,8.10
2023-04-01T22:57:07.453Z,7.57
2023-04-01T22:59:42.188Z,7.57
2023-04-01T23:02:13.781Z,8.40
2023-04-01T23:04:42.744Z,7.43
2023-04-01T23:07:26.639Z,7.43
2023-04-01T23:09:55.486Z,7.30
2023-04-01T23:12:23.159Z,9.00
2023-04-01T23:14:52.180Z,7.67
2023-04-01T23:17:39.546Z,7.83
2023-04-01T23:20:16.011Z,7.40
2023-04-01T23:23:00.184Z,8.30
2023-04-01T23:25:47.461Z,7.70
2023-04-01T23:28:19.322Z,8.27
2023-04-01T23:30:48.232Z,7.40
2023-04-01T23:33:22.968Z,8.40
2023-04-01T23:35:52.549Z,8.60
2023-04-01T23:38:21.730Z,8.00
2023-04-01T23:40:50.451Z,8.07
2023-04-01T23:43:28.613Z,9.53
2023-04-01T23:45:59.686Z,7.40
2023-04-01T23:48:31.549Z,8.57
2023-04-01T23:50:59.610Z,7.60
2023-04-01T23:53:28.171Z,7.83
2023-04-01T23:55:56.371Z,7.63
2023-04-01T23:58:26.773Z,9.20
